sensor_id;sensor_type;location;lat;lon;timestamp;pressure;altitude;pressure_sealevel;temperature;humidity
20023;BME280;10172;42.054;24.546;2023-02-21T00:00:52;98437.38;;;10.89;39.28
20023;BME280;10172;42.054;24.546;2023-02-21T00:03:36;98438.56;;;10.71;40.74
20023;BME280;10172;42.054;24.546;2023-02-21T00:06:20;98444.94;;;10.68;39.45
20023;BME280;10172;42.054;24.546;2023-02-21T00:09:03;98444.44;;;11.03;39.54
20023;BME280;10172;42.054;24.546;2023-02-21T00:11:47;98443.44;;;10.91;39.23
20023;BME280;10172;42.054;24.546;2023-02-21T00:14:31;98435.03;;;10.58;40.77
20023;BME280;10172;42.054;24.546;2023-02-21T00:17:15;98435.59;;;10.22;40.94
20023;BME280;10172;42.054;24.546;2023-02-21T00:19:59;98430.84;;;9.85;42.58
20023;BME280;10172;42.054;24.546;2023-02-21T00:22:45;98435.00;;;9.46;44.23
20023;BME280;10172;42.054;24.546;2023-02-21T00:25:29;98425.22;;;9.33;43.48
20023;BME280;10172;42.054;24.546;2023-02-21T00:28:13;98437.00;;;10.28;40.54
20023;BME280;10172;42.054;24.546;2023-02-21T00:30:57;98433.69;;;9.39;43.87
20023;BME280;10172;42.054;24.546;2023-02-21T00:33:41;98426.28;;;9.87;42.29
20023;BME280;10172;42.054;24.546;2023-02-21T00:36:25;98427.44;;;9.69;43.21
20023;BME280;10172;42.054;24.546;2023-02-21T00:39:09;98410.19;;;9.47;43.43
20023;BME280;10172;42.054;24.546;2023-02-21T00:41:53;98405.63;;;9.78;42.70
20023;BME280;10172;42.054;24.546;2023-02-21T00:44:37;98395.75;;;9.80;42.00
20023;BME280;10172;42.054;24.546;2023-02-21T00:47:21;98392.97;;;10.50;40.14
20023;BME280;10172;42.054;24.546;2023-02-21T00:50:05;98383.22;;;10.63;40.03
20023;BME280;10172;42.054;24.546;2023-02-21T00:52:49;98372.72;;;10.74;39.40
20023;BME280;10172;42.054;24.546;2023-02-21T00:55:33;98362.66;;;11.17;38.49
20023;BME280;10172;42.054;24.546;2023-02-21T00:58:20;98372.69;;;11.39;37.85
20023;BME280;10172;42.054;24.546;2023-02-21T01:01:04;98374.19;;;10.39;41.52
20023;BME280;10172;42.054;24.546;2023-02-21T01:03:48;98363.22;;;10.31;41.35
20023;BME280;10172;42.054;24.546;2023-02-21T01:06:32;98350.38;;;10.77;39.79
20023;BME280;10172;42.054;24.546;2023-02-21T01:09:16;98357.97;;;10.96;40.77
20023;BME280;10172;42.054;24.546;2023-02-21T01:12:00;98357.66;;;11.13;39.63
20023;BME280;10172;42.054;24.546;2023-02-21T01:14:44;98346.25;;;11.86;37.26
20023;BME280;10172;42.054;24.546;2023-02-21T01:17:28;98352.09;;;11.91;38.31
20023;BME280;10172;42.054;24.546;2023-02-21T01:20:12;98339.97;;;10.87;40.35
20023;BME280;10172;42.054;24.546;2023-02-21T01:22:55;98339.19;;;10.85;40.82
20023;BME280;10172;42.054;24.546;2023-02-21T01:25:39;98328.56;;;10.85;40.53
20023;BME280;10172;42.054;24.546;2023-02-21T01:28:23;98317.41;;;11.05;40.09
20023;BME280;10172;42.054;24.546;2023-02-21T01:31:07;98323.88;;;10.75;40.35
20023;BME280;10172;42.054;24.546;2023-02-21T01:33:51;98309.94;;;10.85;40.23
20023;BME280;10172;42.054;24.546;2023-02-21T01:36:35;98304.94;;;10.93;41.08
20023;BME280;10172;42.054;24.546;2023-02-21T01:39:19;98308.47;;;11.31;39.94
20023;BME280;10172;42.054;24.546;2023-02-21T01:42:03;98302.16;;;11.45;39.62
20023;BME280;10172;42.054;24.546;2023-02-21T01:44:48;98308.47;;;11.92;38.42
20023;BME280;10172;42.054;24.546;2023-02-21T01:47:32;98309.34;;;12.17;37.04
20023;BME280;10172;42.054;24.546;2023-02-21T01:50:27;98304.75;;;12.19;38.00
20023;BME280;10172;42.054;24.546;2023-02-21T01:53:24;98310.53;;;12.13;37.86
20023;BME280;10172;42.054;24.546;2023-02-21T01:56:09;98306.84;;;12.03;37.74
20023;BME280;10172;42.054;24.546;2023-02-21T01:58:56;98305.13;;;11.53;39.37
20023;BME280;10172;42.054;24.546;2023-02-21T02:01:50;98309.81;;;11.74;38.50
20023;BME280;10172;42.054;24.546;2023-02-21T02:04:36;98285.59;;;11.77;38.57
20023;BME280;10172;42.054;24.546;2023-02-21T02:07:20;98280.19;;;12.03;38.57
20023;BME280;10172;42.054;24.546;2023-02-21T02:10:05;98277.31;;;12.06;38.20
20023;BME280;10172;42.054;24.546;2023-02-21T02:27:08;98264.72;;;12.42;38.03
20023;BME280;10172;42.054;24.546;2023-02-21T02:41:17;98257.69;;;10.84;42.93
20023;BME280;10172;42.054;24.546;2023-02-21T02:43:50;98253.50;;;10.92;42.21
20023;BME280;10172;42.054;24.546;2023-02-21T02:46:27;98254.91;;;10.72;43.07
20023;BME280;10172;42.054;24.546;2023-02-21T02:49:01;98246.19;;;10.70;42.08
20023;BME280;10172;42.054;24.546;2023-02-21T02:51:28;98239.44;;;11.28;40.87
20023;BME280;10172;42.054;24.546;2023-02-21T02:53:54;98240.59;;;11.85;39.46
20023;BME280;10172;42.054;24.546;2023-02-21T02:56:19;98227.38;;;12.08;38.76
20023;BME280;10172;42.054;24.546;2023-02-21T02:59:13;98230.38;;;11.79;39.13
20023;BME280;10172;42.054;24.546;2023-02-21T03:12:43;98233.19;;;12.93;37.71
20023;BME280;10172;42.054;24.546;2023-02-21T03:15:23;98228.53;;;13.19;36.84
20023;BME280;10172;42.054;24.546;2023-02-21T03:18:04;98232.50;;;13.02;37.73
20023;BME280;10172;42.054;24.546;2023-02-21T03:20:34;98227.63;;;12.96;37.79
20023;BME280;10172;42.054;24.546;2023-02-21T03:23:02;98226.19;;;13.14;37.49
20023;BME280;10172;42.054;24.546;2023-02-21T03:25:30;98242.44;;;12.89;38.33
20023;BME280;10172;42.054;24.546;2023-02-21T03:27:59;98250.13;;;13.16;37.31
20023;BME280;10172;42.054;24.546;2023-02-21T03:30:25;98242.56;;;13.65;36.86
20023;BME280;10172;42.054;24.546;2023-02-21T03:32:52;98245.88;;;13.47;36.99
20023;BME280;10172;42.054;24.546;2023-02-21T03:35:19;98242.69;;;13.08;37.61
20023;BME280;10172;42.054;24.546;2023-02-21T03:37:47;98242.47;;;13.45;36.71
20023;BME280;10172;42.054;24.546;2023-02-21T03:40:25;98240.53;;;13.25;37.36
20023;BME280;10172;42.054;24.546;2023-02-21T03:42:54;98236.88;;;13.37;36.49
20023;BME280;10172;42.054;24.546;2023-02-21T03:45:20;98239.44;;;13.38;35.78
20023;BME280;10172;42.054;24.546;2023-02-21T03:47:45;98232.63;;;14.10;35.19
20023;BME280;10172;42.054;24.546;2023-02-21T03:50:11;98239.53;;;13.70;36.35
20023;BME280;10172;42.054;24.546;2023-02-21T03:52:37;98238.84;;;13.57;35.85
20023;BME280;10172;42.054;24.546;2023-02-21T03:55:03;98238.41;;;14.26;35.53
20023;BME280;10172;42.054;24.546;2023-02-21T03:57:29;98225.22;;;14.66;34.95
20023;BME280;10172;42.054;24.546;2023-02-21T03:59:55;98232.00;;;14.91;34.02
20023;BME280;10172;42.054;24.546;2023-02-21T04:02:20;98233.97;;;13.17;37.77
20023;BME280;10172;42.054;24.546;2023-02-21T04:04:46;98229.88;;;12.22;39.97
20023;BME280;10172;42.054;24.546;2023-02-21T04:07:14;98232.44;;;12.80;39.07
20023;BME280;10172;42.054;24.546;2023-02-21T04:09:39;98239.63;;;11.86;41.80
20023;BME280;10172;42.054;24.546;2023-02-21T04:12:05;98231.81;;;11.47;42.38
20023;BME280;10172;42.054;24.546;2023-02-21T04:14:31;98225.16;;;11.29;42.71
20023;BME280;10172;42.054;24.546;2023-02-21T04:16:56;98232.56;;;11.49;42.40
20023;BME280;10172;42.054;24.546;2023-02-21T04:19:22;98243.63;;;10.94;44.03
20023;BME280;10172;42.054;24.546;2023-02-21T04:21:47;98230.50;;;11.65;41.81
20023;BME280;10172;42.054;24.546;2023-02-21T04:24:13;98234.88;;;12.37;39.95
20023;BME280;10172;42.054;24.546;2023-02-21T04:26:38;98224.75;;;11.22;42.83
20023;BME280;10172;42.054;24.546;2023-02-21T04:29:04;98245.13;;;12.20;39.38
20023;BME280;10172;42.054;24.546;2023-02-21T04:31:30;98247.63;;;11.86;41.14
20023;BME280;10172;42.054;24.546;2023-02-21T04:33:57;98235.03;;;12.12;39.90
20023;BME280;10172;42.054;24.546;2023-02-21T04:36:23;98257.38;;;12.57;40.11
20023;BME280;10172;42.054;24.546;2023-02-21T04:38:48;98243.91;;;11.40;43.21
20023;BME280;10172;42.054;24.546;2023-02-21T04:41:15;98251.72;;;11.67;41.69
20023;BME280;10172;42.054;24.546;2023-02-21T04:43:41;98248.09;;;12.39;39.33
20023;BME280;10172;42.054;24.546;2023-02-21T04:46:07;98259.72;;;12.27;41.36
20023;BME280;10172;42.054;24.546;2023-02-21T04:48:33;98259.88;;;12.13;41.66
20023;BME280;10172;42.054;24.546;2023-02-21T04:50:58;98256.72;;;12.77;39.18
20023;BME280;10172;42.054;24.546;2023-02-21T04:53:24;98270.75;;;12.33;40.77
20023;BME280;10172;42.054;24.546;2023-02-21T04:55:50;98263.84;;;12.31;40.18
20023;BME280;10172;42.054;24.546;2023-02-21T04:58:15;98279.81;;;12.54;40.10
20023;BME280;10172;42.054;24.546;2023-02-21T05:00:41;98279.41;;;12.83;39.12
20023;BME280;10172;42.054;24.546;2023-02-21T05:03:06;98267.19;;;12.91;38.20
20023;BME280;10172;42.054;24.546;2023-02-21T05:05:32;98275.53;;;12.76;39.23
20023;BME280;10172;42.054;24.546;2023-02-21T05:07:57;98273.94;;;12.84;38.81
20023;BME280;10172;42.054;24.546;2023-02-21T05:10:22;98276.16;;;13.01;38.80
20023;BME280;10172;42.054;24.546;2023-02-21T05:12:48;98269.50;;;12.50;39.35
20023;BME280;10172;42.054;24.546;2023-02-21T05:15:14;98276.47;;;13.09;37.55
20023;BME280;10172;42.054;24.546;2023-02-21T05:17:40;98274.28;;;13.26;37.39
20023;BME280;10172;42.054;24.546;2023-02-21T05:20:05;98259.56;;;12.63;38.78
20023;BME280;10172;42.054;24.546;2023-02-21T05:22:39;98267.66;;;12.16;40.52
20023;BME280;10172;42.054;24.546;2023-02-21T05:25:08;98259.97;;;11.38;43.42
20023;BME280;10172;42.054;24.546;2023-02-21T05:27:38;98270.88;;;10.85;44.73
20023;BME280;10172;42.054;24.546;2023-02-21T05:30:04;98273.81;;;11.43;42.09
20023;BME280;10172;42.054;24.546;2023-02-21T05:32:29;98275.75;;;11.29;43.88
20023;BME280;10172;42.054;24.546;2023-02-21T05:34:55;98281.25;;;10.50;46.91
20023;BME280;10172;42.054;24.546;2023-02-21T05:37:20;98274.69;;;10.68;45.92
20023;BME280;10172;42.054;24.546;2023-02-21T05:39:47;98294.50;;;11.15;45.84
20023;BME280;10172;42.054;24.546;2023-02-21T05:42:13;98279.47;;;11.14;44.79
20023;BME280;10172;42.054;24.546;2023-02-21T05:44:38;98298.44;;;11.34;44.83
20023;BME280;10172;42.054;24.546;2023-02-21T05:47:04;98288.56;;;10.99;45.71
20023;BME280;10172;42.054;24.546;2023-02-21T05:49:31;98291.13;;;11.13;44.79
20023;BME280;10172;42.054;24.546;2023-02-21T05:51:57;98285.13;;;11.34;43.83
20023;BME280;10172;42.054;24.546;2023-02-21T05:54:22;98295.97;;;11.44;44.79
20023;BME280;10172;42.054;24.546;2023-02-21T05:56:50;98300.38;;;11.20;45.10
20023;BME280;10172;42.054;24.546;2023-02-21T05:59:17;98305.06;;;11.16;45.45
20023;BME280;10172;42.054;24.546;2023-02-21T06:01:44;98308.53;;;11.67;44.23
20023;BME280;10172;42.054;24.546;2023-02-21T06:04:09;98314.50;;;11.83;44.55
20023;BME280;10172;42.054;24.546;2023-02-21T06:06:36;98304.72;;;11.46;45.46
20023;BME280;10172;42.054;24.546;2023-02-21T06:09:02;98307.09;;;11.13;46.57
20023;BME280;10172;42.054;24.546;2023-02-21T06:11:30;98305.22;;;12.13;43.62
20023;BME280;10172;42.054;24.546;2023-02-21T06:14:04;98307.38;;;11.95;44.07
20023;BME280;10172;42.054;24.546;2023-02-21T06:16:34;98308.22;;;12.32;42.29
20023;BME280;10172;42.054;24.546;2023-02-21T06:19:00;98298.47;;;12.78;41.96
20023;BME280;10172;42.054;24.546;2023-02-21T06:21:26;98296.28;;;12.83;41.28
20023;BME280;10172;42.054;24.546;2023-02-21T06:23:52;98287.28;;;13.19;41.37
20023;BME280;10172;42.054;24.546;2023-02-21T06:26:19;98285.00;;;12.91;42.37
20023;BME280;10172;42.054;24.546;2023-02-21T06:28:45;98295.72;;;12.56;43.85
20023;BME280;10172;42.054;24.546;2023-02-21T06:31:11;98284.63;;;12.73;43.14
20023;BME280;10172;42.054;24.546;2023-02-21T06:33:36;98283.75;;;13.07;42.49
20023;BME280;10172;42.054;24.546;2023-02-21T06:36:10;98282.06;;;13.17;42.03
20023;BME280;10172;42.054;24.546;2023-02-21T06:38:37;98290.09;;;13.62;41.10
20023;BME280;10172;42.054;24.546;2023-02-21T06:41:07;98297.88;;;13.54;41.26
20023;BME280;10172;42.054;24.546;2023-02-21T06:43:32;98303.06;;;13.66;40.33
20023;BME280;10172;42.054;24.546;2023-02-21T06:46:00;98300.72;;;13.95;38.91
20023;BME280;10172;42.054;24.546;2023-02-21T06:48:26;98292.50;;;14.30;39.23
20023;BME280;10172;42.054;24.546;2023-02-21T06:50:51;98292.59;;;13.97;39.87
20023;BME280;10172;42.054;24.546;2023-02-21T06:53:17;98303.75;;;14.02;39.83
20023;BME280;10172;42.054;24.546;2023-02-21T06:55:42;98304.25;;;13.96;40.47
20023;BME280;10172;42.054;24.546;2023-02-21T06:58:08;98307.50;;;14.32;40.31
20023;BME280;10172;42.054;24.546;2023-02-21T07:00:34;98292.91;;;14.03;39.90
20023;BME280;10172;42.054;24.546;2023-02-21T07:03:00;98292.63;;;14.40;39.22
20023;BME280;10172;42.054;24.546;2023-02-21T07:05:25;98310.09;;;14.44;39.47
20023;BME280;10172;42.054;24.546;2023-02-21T07:07:51;98299.16;;;14.47;38.56
20023;BME280;10172;42.054;24.546;2023-02-21T07:10:16;98300.00;;;14.47;38.69
20023;BME280;10172;42.054;24.546;2023-02-21T07:12:42;98298.19;;;14.48;38.94
20023;BME280;10172;42.054;24.546;2023-02-21T07:15:07;98298.16;;;14.59;37.88
20023;BME280;10172;42.054;24.546;2023-02-21T07:17:33;98287.69;;;14.76;37.81
20023;BME280;10172;42.054;24.546;2023-02-21T07:19:59;98291.69;;;14.82;37.65
20023;BME280;10172;42.054;24.546;2023-02-21T07:22:24;98298.19;;;15.00;37.95
20023;BME280;10172;42.054;24.546;2023-02-21T07:24:52;98295.81;;;14.86;37.58
20023;BME280;10172;42.054;24.546;2023-02-21T07:27:19;98304.97;;;15.04;37.30
20023;BME280;10172;42.054;24.546;2023-02-21T07:29:48;98300.91;;;14.89;37.03
20023;BME280;10172;42.054;24.546;2023-02-21T07:32:17;98284.50;;;14.82;36.72
20023;BME280;10172;42.054;24.546;2023-02-21T07:34:42;98305.59;;;15.17;36.82
20023;BME280;10172;42.054;24.546;2023-02-21T07:37:09;98305.88;;;15.35;36.34
20023;BME280;10172;42.054;24.546;2023-02-21T07:39:35;98305.13;;;15.33;36.24
20023;BME280;10172;42.054;24.546;2023-02-21T07:42:00;98303.97;;;15.26;35.76
20023;BME280;10172;42.054;24.546;2023-02-21T07:44:26;98290.34;;;15.38;35.94
20023;BME280;10172;42.054;24.546;2023-02-21T07:46:51;98292.19;;;16.08;35.46
20023;BME280;10172;42.054;24.546;2023-02-21T07:49:17;98295.28;;;15.94;35.18
20023;BME280;10172;42.054;24.546;2023-02-21T07:51:42;98287.16;;;16.24;34.81
20023;BME280;10172;42.054;24.546;2023-02-21T07:54:08;98298.41;;;16.08;34.66
20023;BME280;10172;42.054;24.546;2023-02-21T07:56:33;98285.34;;;15.85;35.03
20023;BME280;10172;42.054;24.546;2023-02-21T07:58:59;98282.88;;;16.02;34.81
20023;BME280;10172;42.054;24.546;2023-02-21T08:01:25;98278.84;;;16.46;34.38
20023;BME280;10172;42.054;24.546;2023-02-21T08:03:51;98265.97;;;16.21;33.97
20023;BME280;10172;42.054;24.546;2023-02-21T08:06:16;98254.66;;;16.27;34.08
20023;BME280;10172;42.054;24.546;2023-02-21T08:08:43;98256.66;;;16.35;34.07
20023;BME280;10172;42.054;24.546;2023-02-21T08:11:09;98253.97;;;16.63;34.20
20023;BME280;10172;42.054;24.546;2023-02-21T08:13:34;98257.56;;;17.29;33.28
20023;BME280;10172;42.054;24.546;2023-02-21T08:16:00;98259.91;;;17.79;32.86
20023;BME280;10172;42.054;24.546;2023-02-21T08:18:25;98249.25;;;17.13;32.95
20023;BME280;10172;42.054;24.546;2023-02-21T08:20:53;98255.63;;;17.59;32.58
20023;BME280;10172;42.054;24.546;2023-02-21T08:23:19;98255.59;;;17.22;32.53
20023;BME280;10172;42.054;24.546;2023-02-21T08:25:45;98248.72;;;17.83;32.66
20023;BME280;10172;42.054;24.546;2023-02-21T08:28:12;98249.78;;;17.73;32.37
20023;BME280;10172;42.054;24.546;2023-02-21T08:30:38;98244.34;;;17.36;32.52
20023;BME280;10172;42.054;24.546;2023-02-21T08:33:03;98247.16;;;17.44;32.61
20023;BME280;10172;42.054;24.546;2023-02-21T08:35:29;98249.72;;;17.36;32.47
20023;BME280;10172;42.054;24.546;2023-02-21T08:37:54;98247.41;;;17.60;32.44
20023;BME280;10172;42.054;24.546;2023-02-21T08:40:28;98243.03;;;17.13;32.96
20023;BME280;10172;42.054;24.546;2023-02-21T08:42:55;98226.63;;;18.25;31.90
20023;BME280;10172;42.054;24.546;2023-02-21T08:45:23;98225.22;;;18.91;30.90
20023;BME280;10172;42.054;24.546;2023-02-21T08:47:49;98220.94;;;18.63;30.96
20023;BME280;10172;42.054;24.546;2023-02-21T08:50:16;98221.50;;;18.67;31.08
20023;BME280;10172;42.054;24.546;2023-02-21T08:52:41;98203.03;;;18.54;30.57
20023;BME280;10172;42.054;24.546;2023-02-21T08:55:07;98204.72;;;18.73;30.47
20023;BME280;10172;42.054;24.546;2023-02-21T08:57:32;98188.22;;;19.27;31.16
20023;BME280;10172;42.054;24.546;2023-02-21T08:59:59;98198.16;;;19.94;29.32
20023;BME280;10172;42.054;24.546;2023-02-21T09:02:25;98186.97;;;19.81;29.64
20023;BME280;10172;42.054;24.546;2023-02-21T09:04:53;98197.31;;;18.39;30.92
20023;BME280;10172;42.054;24.546;2023-02-21T09:07:20;98200.09;;;18.12;31.30
20023;BME280;10172;42.054;24.546;2023-02-21T09:09:47;98201.13;;;19.16;30.28
20023;BME280;10172;42.054;24.546;2023-02-21T09:12:13;98197.44;;;19.84;29.20
20023;BME280;10172;42.054;24.546;2023-02-21T09:14:40;98196.56;;;19.42;29.96
20023;BME280;10172;42.054;24.546;2023-02-21T09:17:08;98199.31;;;19.50;29.64
20023;BME280;10172;42.054;24.546;2023-02-21T09:19:34;98197.94;;;18.69;30.63
20023;BME280;10172;42.054;24.546;2023-02-21T09:21:59;98197.84;;;19.04;30.48
20023;BME280;10172;42.054;24.546;2023-02-21T09:24:26;98183.28;;;18.89;30.73
20023;BME280;10172;42.054;24.546;2023-02-21T09:26:57;98189.16;;;18.67;30.67
20023;BME280;10172;42.054;24.546;2023-02-21T09:29:25;98186.09;;;18.87;30.51
20023;BME280;10172;42.054;24.546;2023-02-21T09:31:51;98177.00;;;19.14;30.43
20023;BME280;10172;42.054;24.546;2023-02-21T09:34:17;98166.53;;;19.37;29.97
20023;BME280;10172;42.054;24.546;2023-02-21T09:36:42;98167.63;;;20.02;29.57
20023;BME280;10172;42.054;24.546;2023-02-21T09:39:08;98176.97;;;20.88;28.22
20023;BME280;10172;42.054;24.546;2023-02-21T09:41:35;98175.97;;;20.81;28.26
20023;BME280;10172;42.054;24.546;2023-02-21T09:44:03;98171.56;;;20.72;28.12
20023;BME280;10172;42.054;24.546;2023-02-21T09:46:38;98166.78;;;19.51;29.38
20023;BME280;10172;42.054;24.546;2023-02-21T09:49:36;98154.13;;;20.02;28.74
20023;BME280;10172;42.054;24.546;2023-02-21T09:52:05;98153.31;;;20.25;28.99
20023;BME280;10172;42.054;24.546;2023-02-21T09:54:38;98154.16;;;19.60;29.07
20023;BME280;10172;42.054;24.546;2023-02-21T09:57:10;98151.34;;;19.69;29.11
20023;BME280;10172;42.054;24.546;2023-02-21T09:59:36;98152.34;;;20.43;28.57
20023;BME280;10172;42.054;24.546;2023-02-21T10:07:48;98149.28;;;21.88;27.19
20023;BME280;10172;42.054;24.546;2023-02-21T10:10:51;98130.28;;;22.41;26.94
20023;BME280;10172;42.054;24.546;2023-02-21T10:16:32;98131.19;;;22.94;26.46
20023;BME280;10172;42.054;24.546;2023-02-21T10:21:35;98114.09;;;23.08;25.80
20023;BME280;10172;42.054;24.546;2023-02-21T10:24:11;98103.16;;;21.73;26.03
20023;BME280;10172;42.054;24.546;2023-02-21T10:26:38;98108.25;;;21.68;25.34
20023;BME280;10172;42.054;24.546;2023-02-21T10:32:04;98091.72;;;21.86;25.60
20023;BME280;10172;42.054;24.546;2023-02-21T10:34:31;98097.84;;;21.02;25.44
20023;BME280;10172;42.054;24.546;2023-02-21T10:37:15;98084.66;;;21.15;25.50
20023;BME280;10172;42.054;24.546;2023-02-21T10:39:49;98090.72;;;21.17;25.84
20023;BME280;10172;42.054;24.546;2023-02-21T10:42:30;98079.03;;;21.33;25.59
20023;BME280;10172;42.054;24.546;2023-02-21T10:44:57;98067.78;;;22.06;25.10
20023;BME280;10172;42.054;24.546;2023-02-21T10:50:11;98068.72;;;23.02;24.46
20023;BME280;10172;42.054;24.546;2023-02-21T10:52:48;98062.56;;;20.87;25.83
20023;BME280;10172;42.054;24.546;2023-02-21T10:55:16;98067.03;;;20.56;26.11
20023;BME280;10172;42.054;24.546;2023-02-21T10:57:44;98052.50;;;20.65;26.03
20023;BME280;10172;42.054;24.546;2023-02-21T11:00:29;98046.81;;;21.69;24.69
20023;BME280;10172;42.054;24.546;2023-02-21T11:03:20;98060.63;;;21.20;24.68
20023;BME280;10172;42.054;24.546;2023-02-21T11:05:56;98058.34;;;20.85;24.77
20023;BME280;10172;42.054;24.546;2023-02-21T11:08:37;98057.00;;;20.89;25.04
20023;BME280;10172;42.054;24.546;2023-02-21T11:11:03;98046.66;;;20.30;25.55
20023;BME280;10172;42.054;24.546;2023-02-21T11:13:29;98044.34;;;20.90;25.73
20023;BME280;10172;42.054;24.546;2023-02-21T11:16:19;98036.19;;;20.98;25.55
20023;BME280;10172;42.054;24.546;2023-02-21T11:19:03;98037.44;;;20.71;25.69
20023;BME280;10172;42.054;24.546;2023-02-21T11:21:29;98036.09;;;20.75;25.66
20023;BME280;10172;42.054;24.546;2023-02-21T11:24:03;98016.38;;;21.05;25.49
20023;BME280;10172;42.054;24.546;2023-02-21T11:26:56;98015.38;;;20.98;25.57
20023;BME280;10172;42.054;24.546;2023-02-21T11:29:24;98013.50;;;20.60;25.89
20023;BME280;10172;42.054;24.546;2023-02-21T11:31:52;97997.88;;;21.25;25.45
20023;BME280;10172;42.054;24.546;2023-02-21T11:34:18;97985.16;;;21.87;24.94
20023;BME280;10172;42.054;24.546;2023-02-21T11:36:46;97995.16;;;22.01;24.95
20023;BME280;10172;42.054;24.546;2023-02-21T11:44:38;97994.50;;;21.54;24.91
20023;BME280;10172;42.054;24.546;2023-02-21T11:52:21;97970.56;;;21.88;24.45
20023;BME280;10172;42.054;24.546;2023-02-21T11:54:48;97980.97;;;21.54;24.92
20023;BME280;10172;42.054;24.546;2023-02-21T11:57:20;97974.59;;;22.29;24.65
20023;BME280;10172;42.054;24.546;2023-02-21T12:07:39;97950.06;;;23.25;23.72
20023;BME280;10172;42.054;24.546;2023-02-21T12:26:40;97915.34;;;22.55;24.12
20023;BME280;10172;42.054;24.546;2023-02-21T12:50:53;97901.16;;;22.83;23.28
20023;BME280;10172;42.054;24.546;2023-02-21T12:53:27;97895.41;;;23.28;23.23
20023;BME280;10172;42.054;24.546;2023-02-21T12:56:08;97898.63;;;23.17;23.05
20023;BME280;10172;42.054;24.546;2023-02-21T12:58:42;97891.63;;;22.87;23.59
20023;BME280;10172;42.054;24.546;2023-02-21T13:01:22;97897.63;;;23.82;22.35
20023;BME280;10172;42.054;24.546;2023-02-21T13:06:37;97871.63;;;22.73;23.39
20023;BME280;10172;42.054;24.546;2023-02-21T13:09:16;97885.38;;;23.29;23.31
20023;BME280;10172;42.054;24.546;2023-02-21T13:14:38;97878.88;;;23.87;22.36
20023;BME280;10172;42.054;24.546;2023-02-21T13:17:09;97881.69;;;23.36;22.34
20023;BME280;10172;42.054;24.546;2023-02-21T13:19:52;97868.91;;;22.44;22.71
20023;BME280;10172;42.054;24.546;2023-02-21T13:22:23;97859.31;;;22.71;22.57
20023;BME280;10172;42.054;24.546;2023-02-21T13:25:13;97873.41;;;23.38;22.58
20023;BME280;10172;42.054;24.546;2023-02-21T13:28:00;97872.13;;;23.83;21.88
20023;BME280;10172;42.054;24.546;2023-02-21T13:32:57;97877.41;;;23.42;22.36
20023;BME280;10172;42.054;24.546;2023-02-21T13:35:37;97867.44;;;23.28;22.63
20023;BME280;10172;42.054;24.546;2023-02-21T13:38:08;97862.47;;;23.73;22.29
20023;BME280;10172;42.054;24.546;2023-02-21T13:40:39;97870.75;;;23.65;22.25
20023;BME280;10172;42.054;24.546;2023-02-21T13:43:14;97864.53;;;23.29;22.32
20023;BME280;10172;42.054;24.546;2023-02-21T13:45:40;97865.25;;;23.59;21.67
20023;BME280;10172;42.054;24.546;2023-02-21T13:53:28;97853.22;;;23.26;22.42
20023;BME280;10172;42.054;24.546;2023-02-21T14:03:47;97851.72;;;23.02;22.44
20023;BME280;10172;42.054;24.546;2023-02-21T14:06:14;97854.28;;;23.46;22.12
20023;BME280;10172;42.054;24.546;2023-02-21T14:08:46;97857.03;;;23.31;22.54
20023;BME280;10172;42.054;24.546;2023-02-21T14:11:17;97855.28;;;23.66;22.31
20023;BME280;10172;42.054;24.546;2023-02-21T14:13:48;97849.22;;;23.00;22.21
20023;BME280;10172;42.054;24.546;2023-02-21T14:19:10;97842.13;;;22.85;22.91
20023;BME280;10172;42.054;24.546;2023-02-21T14:24:19;97839.34;;;23.84;22.46
20023;BME280;10172;42.054;24.546;2023-02-21T14:26:53;97841.72;;;23.94;22.41
20023;BME280;10172;42.054;24.546;2023-02-21T14:37:20;97836.66;;;23.91;22.09
20023;BME280;10172;42.054;24.546;2023-02-21T14:57:25;97828.97;;;24.22;22.18
20023;BME280;10172;42.054;24.546;2023-02-21T15:05:24;97816.03;;;24.30;22.00
20023;BME280;10172;42.054;24.546;2023-02-21T15:07:57;97814.25;;;24.51;22.04
20023;BME280;10172;42.054;24.546;2023-02-21T15:10:27;97818.72;;;24.65;22.16
20023;BME280;10172;42.054;24.546;2023-02-21T15:12:58;97818.22;;;24.48;21.95
20023;BME280;10172;42.054;24.546;2023-02-21T15:15:42;97815.09;;;24.51;21.81
20023;BME280;10172;42.054;24.546;2023-02-21T15:18:23;97817.78;;;24.38;22.56
20023;BME280;10172;42.054;24.546;2023-02-21T15:23:26;97806.63;;;23.99;22.76
20023;BME280;10172;42.054;24.546;2023-02-21T15:25:55;97814.81;;;22.36;24.48
20023;BME280;10172;42.054;24.546;2023-02-21T15:28:24;97826.69;;;22.20;24.80
20023;BME280;10172;42.054;24.546;2023-02-21T15:33:22;97820.34;;;22.28;24.73
20023;BME280;10172;42.054;24.546;2023-02-21T15:36:04;97809.44;;;20.95;26.77
20023;BME280;10172;42.054;24.546;2023-02-21T15:38:36;97823.09;;;20.40;27.84
20023;BME280;10172;42.054;24.546;2023-02-21T15:41:12;97827.91;;;19.42;29.21
20023;BME280;10172;42.054;24.546;2023-02-21T15:43:49;97829.31;;;19.93;28.12
20023;BME280;10172;42.054;24.546;2023-02-21T15:46:24;97828.66;;;19.83;28.50
20023;BME280;10172;42.054;24.546;2023-02-21T15:48:53;97823.09;;;18.64;30.32
20023;BME280;10172;42.054;24.546;2023-02-21T15:51:20;97834.69;;;18.56;30.58
20023;BME280;10172;42.054;24.546;2023-02-21T15:56:41;97830.09;;;18.07;31.62
20023;BME280;10172;42.054;24.546;2023-02-21T15:59:23;97832.59;;;17.49;32.67
20023;BME280;10172;42.054;24.546;2023-02-21T16:02:19;97828.06;;;17.06;33.59
20023;BME280;10172;42.054;24.546;2023-02-21T16:04:49;97835.84;;;16.91;33.58
20023;BME280;10172;42.054;24.546;2023-02-21T16:07:35;97837.81;;;17.50;32.84
20023;BME280;10172;42.054;24.546;2023-02-21T16:10:12;97835.31;;;17.49;33.30